Terminal Aerodrome Forecast
Issued by NWS

Home | Current Version | Previous Version | Text Only | Print | Product List | Glossary On
Versions: 1 2 3 4 5 6 7 8 9 10 11 12
000
FTUS42 TJSJ 291750
TAFJMZ
TAF
TJMZ 291750Z 2918/3018 28009KT P6SM VCTS SCT020 BKN040CB
      TEMPO 2918/2921 P6SM -RA BKN050
     FM292100 09006KT P6SM OVC100
      TEMPO 2921/2924 P6SM -RA OVC100
     FM300000 09006KT P6SM OVC050
     FM301200 07004KT P6SM BKN050
      AMD NOT SKED TIL 301500=

USA.gov is the U.S. government's official web portal to all federal, state and local government web resources and services.